Time;durP1;ratioP1;P1;durP2;ratioP2;P2;SDS_P1;SDS_P2;PMS_P1;PMS_P2;Temp;Humidity;BMP_temperature;BMP_pressure;BME280_temperature;BME280_humidity;BME280_pressure;Samples;Min_cycle;Max_cycle;Signal;HPM_P1;HPM_P2
2022/01/09 00:01:46;0.00;0.00;0.62;0.00;0.00;0.62;2.00;1.10;;;20.10;26.10;;;;;;2241027;62;20675;-61
2022/01/09 00:04:31;0.00;0.00;0.62;0.00;0.00;0.62;1.60;1.00;;;20.20;26.10;;;;;;2241590;62;20378;-61
2022/01/09 00:07:15;0.00;0.00;0.62;0.00;0.00;0.62;1.60;0.93;;;20.20;26.10;;;;;;2241456;62;20402;-63
2022/01/09 00:10:00;0.00;0.00;0.62;0.00;0.00;0.62;1.50;0.90;;;20.20;26.00;;;;;;2243892;61;20382;-62
2022/01/09 00:12:45;0.00;0.00;0.62;0.00;0.00;0.62;1.60;0.93;;;20.10;26.00;;;;;;2241756;62;20377;-61
2022/01/09 00:15:31;0.00;0.00;0.62;0.00;0.00;0.62;1.23;0.80;;;20.10;26.10;;;;;;2241239;62;20381;-62
2022/01/09 00:18:15;0.00;0.00;0.62;0.00;0.00;0.62;1.50;0.80;;;20.10;26.10;;;;;;2241226;62;20589;-61
2022/01/09 00:21:05;0.00;0.00;0.62;0.00;0.00;0.62;1.73;0.83;;;20.10;26.10;;;;;;2242153;62;20643;-62
2022/01/09 00:23:50;0.00;0.00;0.62;0.00;0.00;0.62;1.40;0.90;;;20.10;26.20;;;;;;2236733;62;20406;-62
2022/01/09 00:26:35;0.00;0.00;0.62;0.00;0.00;0.62;1.73;0.80;;;20.10;26.10;;;;;;2237823;62;20774;-61
2022/01/09 00:29:19;0.00;0.00;0.62;0.00;0.00;0.62;1.60;0.80;;;20.10;26.20;;;;;;2237256;62;20387;-61
2022/01/09 00:32:06;0.00;0.00;0.62;0.00;0.00;0.62;1.40;0.90;;;20.10;26.20;;;;;;2237420;62;20410;-62
2022/01/09 00:34:50;0.00;0.00;0.62;0.00;0.00;0.62;1.20;0.70;;;20.10;26.20;;;;;;2238257;62;20489;-62
2022/01/09 00:37:35;0.00;0.00;0.62;0.00;0.00;0.62;1.93;1.00;;;20.10;26.20;;;;;;2237188;62;20574;-62
2022/01/09 00:40:20;0.00;0.00;0.62;0.00;0.00;0.62;1.60;1.00;;;20.10;26.30;;;;;;2237533;62;20387;-64
2022/01/09 00:43:08;0.00;0.00;0.62;0.00;0.00;0.62;1.50;0.90;;;20.10;26.20;;;;;;2238204;62;20587;-62
2022/01/09 00:45:53;0.00;0.00;0.62;0.00;0.00;0.62;1.50;0.83;;;20.10;26.30;;;;;;2237112;62;20400;-62
2022/01/09 00:48:39;0.00;0.00;0.62;0.00;0.00;0.62;1.60;0.87;;;20.10;26.30;;;;;;2237480;62;20384;-61
2022/01/09 00:51:23;0.00;0.00;0.62;0.00;0.00;0.62;2.00;1.30;;;20.10;26.30;;;;;;2238032;62;20384;-62
2022/01/09 00:54:08;0.00;0.00;0.62;0.00;0.00;0.62;1.30;0.70;;;20.10;26.30;;;;;;2237158;62;20383;-62
2022/01/09 00:56:52;0.00;0.00;0.62;0.00;0.00;0.62;1.40;0.90;;;20.10;26.30;;;;;;2237930;62;20622;-62
2022/01/09 00:59:37;0.00;0.00;0.62;0.00;0.00;0.62;1.47;0.73;;;20.10;26.30;;;;;;2237199;62;20784;-63
2022/01/09 01:02:22;0.00;0.00;0.62;0.00;0.00;0.62;1.43;0.87;;;20.10;26.40;;;;;;2237202;62;20396;-62
2022/01/09 01:05:09;0.00;0.00;0.62;0.00;0.00;0.62;1.40;0.73;;;20.10;26.40;;;;;;2238103;62;20387;-64
2022/01/09 01:07:54;0.00;0.00;0.62;0.00;0.00;0.62;1.67;0.90;;;20.10;26.40;;;;;;2237219;62;20519;-62
2022/01/09 01:10:39;0.00;0.00;0.62;0.00;0.00;0.62;2.13;1.03;;;20.10;26.40;;;;;;2237039;62;20379;-62
2022/01/09 01:13:24;0.00;0.00;0.62;0.00;0.00;0.62;1.50;0.80;;;20.10;26.40;;;;;;2237685;62;20467;-63
2022/01/09 01:16:08;0.00;0.00;0.62;0.00;0.00;0.62;1.30;0.70;;;20.10;26.40;;;;;;2237322;62;20445;-61
2022/01/09 01:18:55;0.00;0.00;0.62;0.00;0.00;0.62;1.27;0.77;;;20.10;26.90;;;;;;2237675;62;20439;-62
2022/01/09 01:21:41;0.00;0.00;0.62;0.00;0.00;0.62;1.20;0.70;;;20.10;26.40;;;;;;2237134;62;20400;-62
2022/01/09 01:24:25;0.00;0.00;0.62;0.00;0.00;0.62;1.40;0.80;;;20.10;26.40;;;;;;2237636;62;20773;-62
2022/01/09 01:27:10;0.00;0.00;0.62;0.00;0.00;0.62;1.50;1.00;;;20.10;26.40;;;;;;2238364;62;20422;-62
2022/01/09 01:29:55;0.00;0.00;0.62;0.00;0.00;0.62;1.40;0.73;;;20.10;26.40;;;;;;2238141;62;20451;-62
2022/01/09 01:32:41;0.00;0.00;0.62;0.00;0.00;0.62;1.37;0.77;;;20.10;26.40;;;;;;2237410;62;20363;-61
2022/01/09 01:35:25;0.00;0.00;0.62;0.00;0.00;0.62;1.47;0.80;;;20.10;26.40;;;;;;2238402;62;20386;-62
2022/01/09 01:38:11;0.00;0.00;0.62;0.00;0.00;0.62;1.30;0.80;;;20.10;26.40;;;;;;2237586;62;20477;-62
2022/01/09 01:40:57;0.00;0.00;0.62;0.00;0.00;0.62;1.70;0.80;;;20.10;26.40;;;;;;2238189;62;20370;-62
2022/01/09 01:43:41;0.00;0.00;0.62;0.00;0.00;0.62;1.50;0.90;;;20.10;26.40;;;;;;2237811;62;20383;-61
2022/01/09 01:46:26;0.00;0.00;0.62;0.00;0.00;0.62;1.33;0.80;;;20.10;26.30;;;;;;2237839;62;20414;-62
2022/01/09 01:49:12;0.00;0.00;0.62;0.00;0.00;0.62;2.03;0.90;;;20.10;26.40;;;;;;2238404;62;20363;-62
2022/01/09 01:51:57;0.00;0.00;0.62;0.00;0.00;0.62;1.50;0.80;;;20.10;26.80;;;;;;2237869;62;20403;-61
2022/01/09 01:54:44;0.00;0.00;0.62;0.00;0.00;0.62;1.63;0.87;;;20.10;26.30;;;;;;2237767;62;20487;-62
2022/01/09 01:57:30;0.00;0.00;0.62;0.00;0.00;0.62;1.60;1.07;;;20.10;26.30;;;;;;2238444;62;20513;-61
2022/01/09 02:00:17;0.00;0.00;0.62;0.00;0.00;0.62;1.73;1.40;;;20.10;26.60;;;;;;2237563;62;20368;-61
2022/01/09 02:03:03;0.00;0.00;0.62;0.00;0.00;0.62;1.80;1.30;;;20.10;25.60;;;;;;2237669;62;20363;-62
2022/01/09 02:05:48;0.00;0.00;0.62;0.00;0.00;0.62;1.80;1.30;;;20.00;25.20;;;;;;2238109;62;20363;-62
2022/01/09 02:08:34;0.00;0.00;0.62;0.00;0.00;0.62;1.60;1.40;;;20.00;24.90;;;;;;2237446;62;20665;-61
2022/01/09 02:11:20;0.00;0.00;0.62;0.00;0.00;0.62;2.50;2.03;;;19.90;24.60;;;;;;2238350;62;20363;-61
2022/01/09 02:14:05;0.00;0.00;0.62;0.00;0.00;0.62;1.93;1.40;;;19.80;24.50;;;;;;2237654;62;20466;-62
2022/01/09 02:16:51;0.00;0.00;0.62;0.00;0.00;0.62;2.00;1.70;;;19.70;24.40;;;;;;2237659;62;20435;-62
2022/01/09 02:19:36;0.00;0.00;0.62;0.00;0.00;0.62;2.70;1.50;;;19.70;24.50;;;;;;2238530;62;20363;-61
2022/01/09 02:22:23;0.00;0.00;0.62;0.00;0.00;0.62;2.30;1.40;;;19.60;24.40;;;;;;2237506;62;20404;-61
2022/01/09 02:25:10;0.00;0.00;0.62;0.00;0.00;0.62;1.93;1.50;;;19.50;24.30;;;;;;2237902;62;20467;-61
2022/01/09 02:27:56;0.00;0.00;0.62;0.00;0.00;0.62;2.40;2.10;;;19.40;24.20;;;;;;2238032;62;20927;-61
2022/01/09 02:30:42;0.00;0.00;0.62;0.00;0.00;0.62;2.37;1.70;;;19.30;24.00;;;;;;2237737;62;20415;-62
2022/01/09 02:33:26;0.00;0.00;0.62;0.00;0.00;0.62;2.27;1.43;;;19.30;24.10;;;;;;2238307;62;20715;-61
2022/01/09 02:36:11;0.00;0.00;0.62;0.00;0.00;0.62;1.97;1.50;;;19.20;24.10;;;;;;2237527;62;20390;-61
2022/01/09 02:38:57;0.00;0.00;0.62;0.00;0.00;0.62;1.80;1.43;;;19.10;24.00;;;;;;2237677;62;20412;-61
2022/01/09 02:41:42;0.00;0.00;0.62;0.00;0.00;0.62;2.10;1.50;;;19.00;24.10;;;;;;2238507;62;20379;-61
2022/01/09 02:44:27;0.00;0.00;0.62;0.00;0.00;0.62;2.50;1.80;;;18.90;24.00;;;;;;2237111;62;20626;-61
2022/01/09 02:47:11;0.00;0.00;0.62;0.00;0.00;0.62;2.83;1.60;;;18.80;24.00;;;;;;2237976;62;20404;-61
2022/01/09 02:50:02;0.00;0.00;0.62;0.00;0.00;0.62;2.10;1.63;;;18.80;24.10;;;;;;2237959;62;20360;-62
2022/01/09 02:52:52;0.00;0.00;0.62;0.00;0.00;0.62;3.53;1.90;;;18.70;24.10;;;;;;2237697;62;20379;-61
2022/01/09 02:55:39;0.00;0.00;0.62;0.00;0.00;0.62;1.93;1.57;;;18.70;24.10;;;;;;2238377;62;20383;-61
2022/01/09 02:58:23;0.00;0.00;0.62;0.00;0.00;0.62;2.83;1.40;;;18.60;24.60;;;;;;2237398;62;20367;-61
2022/01/09 03:01:10;0.00;0.00;0.62;0.00;0.00;0.62;2.57;1.50;;;18.50;24.10;;;;;;2237745;62;20363;-61
2022/01/09 03:03:55;0.00;0.00;0.62;0.00;0.00;0.62;2.27;1.30;;;18.50;24.20;;;;;;2238329;62;20456;-61
2022/01/09 03:06:40;0.00;0.00;0.62;0.00;0.00;0.62;1.60;1.30;;;18.40;24.10;;;;;;2237383;62;20416;-61
2022/01/09 03:09:24;0.00;0.00;0.62;0.00;0.00;0.62;2.40;1.40;;;18.40;24.20;;;;;;2238064;62;20371;-62
2022/01/09 03:12:11;0.00;0.00;0.62;0.00;0.00;0.62;2.10;1.30;;;18.30;24.20;;;;;;2237664;62;20534;-62
2022/01/09 03:14:56;0.00;0.00;0.62;0.00;0.00;0.62;2.07;1.70;;;18.30;24.30;;;;;;2237744;62;20391;-62
2022/01/09 03:17:41;0.00;0.00;0.62;0.00;0.00;0.62;2.07;1.30;;;18.20;24.30;;;;;;2238309;62;20465;-61
2022/01/09 03:20:27;0.00;0.00;0.62;0.00;0.00;0.62;1.57;1.20;;;18.20;24.30;;;;;;2237346;62;20366;-61
2022/01/09 03:23:12;0.00;0.00;0.62;0.00;0.00;0.62;3.00;1.60;;;18.10;24.30;;;;;;2237422;62;20359;-61
2022/01/09 03:25:56;0.00;0.00;0.62;0.00;0.00;0.62;1.83;1.30;;;18.10;24.30;;;;;;2238204;62;20443;-61
2022/01/09 03:28:42;0.00;0.00;0.62;0.00;0.00;0.62;1.90;1.23;;;18.00;24.30;;;;;;2237359;62;20752;-61
2022/01/09 03:31:26;0.00;0.00;0.62;0.00;0.00;0.62;2.30;1.50;;;18.00;24.50;;;;;;2237920;62;20476;-61
2022/01/09 03:34:11;0.00;0.00;0.62;0.00;0.00;0.62;1.53;1.23;;;18.00;24.50;;;;;;2237963;62;20442;-62
2022/01/09 03:36:55;0.00;0.00;0.62;0.00;0.00;0.62;2.17;1.67;;;17.90;24.50;;;;;;2237536;62;20400;-61
2022/01/09 03:39:40;0.00;0.00;0.62;0.00;0.00;0.62;1.50;1.30;;;17.90;24.60;;;;;;2237971;62;20400;-61
2022/01/09 03:42:25;0.00;0.00;0.62;0.00;0.00;0.62;1.60;1.20;;;17.90;24.70;;;;;;2237209;62;20687;-61
2022/01/09 03:45:12;0.00;0.00;0.62;0.00;0.00;0.62;2.60;1.57;;;17.90;24.70;;;;;;2237544;62;20415;-62
2022/01/09 03:47:57;0.00;0.00;0.62;0.00;0.00;0.62;2.63;1.60;;;17.80;24.70;;;;;;2237717;62;20391;-62
2022/01/09 03:50:49;0.00;0.00;0.62;0.00;0.00;0.62;1.90;1.10;;;17.80;24.80;;;;;;2237391;62;20616;-61
2022/01/09 03:53:34;0.00;0.00;0.62;0.00;0.00;0.62;2.07;1.20;;;17.80;24.80;;;;;;2237516;62;20391;-62
2022/01/09 03:56:18;0.00;0.00;0.62;0.00;0.00;0.62;1.77;1.30;;;17.80;24.90;;;;;;2238022;62;20407;-61
2022/01/09 03:59:03;0.00;0.00;0.62;0.00;0.00;0.62;3.80;1.40;;;17.80;25.00;;;;;;2237565;62;20370;-61
2022/01/09 04:01:49;0.00;0.00;0.62;0.00;0.00;0.62;1.93;1.30;;;17.80;25.10;;;;;;2237726;62;20364;-61
2022/01/09 04:04:33;0.00;0.00;0.62;0.00;0.00;0.62;1.80;1.23;;;17.80;25.10;;;;;;2237341;62;20399;-61
2022/01/09 04:07:17;0.00;0.00;0.62;0.00;0.00;0.62;1.43;1.10;;;17.80;25.10;;;;;;2236961;62;20778;-61
2022/01/09 04:10:03;0.00;0.00;0.62;0.00;0.00;0.62;1.57;1.20;;;17.80;25.10;;;;;;2238142;62;20371;-62
2022/01/09 04:12:50;0.00;0.00;0.62;0.00;0.00;0.62;2.07;1.07;;;17.80;25.10;;;;;;2237234;62;20394;-63
2022/01/09 04:15:34;0.00;0.00;0.62;0.00;0.00;0.62;1.67;1.33;;;17.80;25.10;;;;;;2237320;62;20430;-61
2022/01/09 04:18:23;0.00;0.00;0.62;0.00;0.00;0.62;1.70;1.23;;;17.80;25.10;;;;;;2238071;62;20355;-61
2022/01/09 04:21:08;0.00;0.00;0.62;0.00;0.00;0.62;1.63;1.20;;;17.80;25.10;;;;;;2237635;62;20367;-62
2022/01/09 04:23:52;0.00;0.00;0.62;0.00;0.00;0.62;1.80;1.27;;;17.80;25.10;;;;;;2237942;62;20384;-61
2022/01/09 04:26:37;0.00;0.00;0.62;0.00;0.00;0.62;1.80;1.40;;;17.80;25.10;;;;;;2237351;62;20653;-62
2022/01/09 04:29:22;0.00;0.00;0.62;0.00;0.00;0.62;1.87;1.27;;;17.80;25.10;;;;;;2237230;62;20861;-61
2022/01/09 04:32:08;0.00;0.00;0.62;0.00;0.00;0.62;2.00;1.50;;;17.80;25.10;;;;;;2238043;62;20484;-61
2022/01/09 04:34:54;0.00;0.00;0.62;0.00;0.00;0.62;1.50;1.03;;;17.80;25.10;;;;;;2237370;62;20386;-61
2022/01/09 04:37:39;0.00;0.00;0.62;0.00;0.00;0.62;1.60;1.17;;;17.80;25.10;;;;;;2237222;62;20438;-61
2022/01/09 04:40:24;0.00;0.00;0.62;0.00;0.00;0.62;2.03;1.43;;;17.80;25.10;;;;;;2238074;62;20408;-61
2022/01/09 04:43:10;0.00;0.00;0.62;0.00;0.00;0.62;1.80;1.50;;;17.80;25.10;;;;;;2236763;62;20403;-61
2022/01/09 04:45:55;0.00;0.00;0.62;0.00;0.00;0.62;1.70;1.20;;;17.70;25.00;;;;;;2237690;62;20407;-61
2022/01/09 04:48:39;0.00;0.00;0.62;0.00;0.00;0.62;1.60;1.37;;;17.70;25.00;;;;;;2237355;62;20371;-61
2022/01/09 04:51:25;0.00;0.00;0.62;0.00;0.00;0.62;1.50;1.10;;;17.70;25.00;;;;;;2237189;62;20358;-61
2022/01/09 04:54:10;0.00;0.00;0.62;0.00;0.00;0.62;1.70;1.20;;;17.70;25.00;;;;;;2237844;62;20395;-60
2022/01/09 04:56:54;0.00;0.00;0.62;0.00;0.00;0.62;1.53;1.20;;;17.70;25.00;;;;;;2236587;62;20359;-62
2022/01/09 04:59:39;0.00;0.00;0.62;0.00;0.00;0.62;1.60;1.30;;;17.70;25.00;;;;;;2237138;62;20363;-62
2022/01/09 05:02:24;0.00;0.00;0.62;0.00;0.00;0.62;1.60;1.33;;;17.70;25.00;;;;;;2237936;62;20359;-63
2022/01/09 05:05:10;0.00;0.00;0.62;0.00;0.00;0.62;1.53;1.13;;;17.70;25.00;;;;;;2237119;62;20379;-62
2022/01/09 05:07:56;0.00;0.00;0.62;0.00;0.00;0.62;1.50;1.00;;;17.70;25.00;;;;;;2237513;62;20390;-62
2022/01/09 05:10:40;0.00;0.00;0.62;0.00;0.00;0.62;2.17;1.40;;;17.60;24.90;;;;;;2237016;62;20375;-62
2022/01/09 05:13:24;0.00;0.00;0.62;0.00;0.00;0.62;1.50;1.10;;;17.60;24.90;;;;;;2237322;62;20476;-62
2022/01/09 05:16:09;0.00;0.00;0.62;0.00;0.00;0.62;2.27;1.20;;;17.60;24.90;;;;;;2237949;62;20400;-62
2022/01/09 05:18:59;0.00;0.00;0.62;0.00;0.00;0.62;1.50;1.07;;;17.60;25.50;;;;;;2237018;62;20473;-62
2022/01/09 05:21:43;0.00;0.00;0.62;0.00;0.00;0.62;1.70;1.23;;;17.60;25.00;;;;;;2237135;62;20371;-60
2022/01/09 05:24:29;0.00;0.00;0.62;0.00;0.00;0.62;1.87;1.27;;;17.60;25.10;;;;;;2237784;62;20387;-62
2022/01/09 05:27:14;0.00;0.00;0.62;0.00;0.00;0.62;1.97;1.47;;;17.60;25.10;;;;;;2236744;62;20497;-62
2022/01/09 05:29:58;0.00;0.00;0.62;0.00;0.00;0.62;1.40;1.00;;;17.60;25.10;;;;;;2237554;62;20359;-62
2022/01/09 05:32:43;0.00;0.00;0.62;0.00;0.00;0.62;1.40;1.00;;;17.50;25.10;;;;;;2237296;62;20768;-62
2022/01/09 05:35:28;0.00;0.00;0.62;0.00;0.00;0.62;1.50;1.10;;;17.50;25.70;;;;;;2237157;62;20775;-62
2022/01/09 05:38:13;0.00;0.00;0.62;0.00;0.00;0.62;2.00;1.30;;;17.50;25.20;;;;;;2237853;62;20587;-62
2022/01/09 05:40:59;0.00;0.00;0.62;0.00;0.00;0.62;1.40;0.90;;;17.50;25.20;;;;;;2236984;62;20403;-62
2022/01/09 05:43:44;0.00;0.00;0.62;0.00;0.00;0.62;1.40;0.90;;;17.50;25.30;;;;;;2237036;62;20383;-62
2022/01/09 05:46:29;0.00;0.00;0.62;0.00;0.00;0.62;1.47;1.03;;;17.50;25.20;;;;;;2237778;62;20394;-62
2022/01/09 05:49:13;0.00;0.00;0.62;0.00;0.00;0.62;1.57;1.10;;;17.50;25.30;;;;;;2237081;62;20371;-62
2022/01/09 05:51:58;0.00;0.00;0.62;0.00;0.00;0.62;1.43;0.90;;;17.50;25.30;;;;;;2237112;62;20374;-62
2022/01/09 05:54:43;0.00;0.00;0.62;0.00;0.00;0.62;1.30;0.90;;;17.50;25.30;;;;;;2237677;62;20515;-62
2022/01/09 05:57:29;0.00;0.00;0.62;0.00;0.00;0.62;1.60;1.00;;;17.50;25.30;;;;;;2237063;62;20582;-62
2022/01/09 06:00:15;0.00;0.00;0.62;0.00;0.00;0.62;1.70;1.00;;;17.50;25.30;;;;;;2237555;62;20379;-62
2022/01/09 06:03:05;0.00;0.00;0.62;0.00;0.00;0.62;1.53;0.97;;;17.50;25.30;;;;;;2236964;62;20419;-62
2022/01/09 06:05:51;0.00;0.00;0.62;0.00;0.00;0.62;1.50;1.07;;;17.50;25.30;;;;;;2236647;62;20444;-62
2022/01/09 06:08:35;0.00;0.00;0.62;0.00;0.00;0.62;1.50;1.10;;;17.50;25.40;;;;;;2237871;62;20394;-62
2022/01/09 06:11:20;0.00;0.00;0.62;0.00;0.00;0.62;1.60;1.00;;;17.50;25.40;;;;;;2237426;62;20364;-62
2022/01/09 06:14:06;0.00;0.00;0.62;0.00;0.00;0.62;1.47;0.90;;;17.50;25.40;;;;;;2237754;62;20751;-63
2022/01/09 06:16:50;0.00;0.00;0.62;0.00;0.00;0.62;1.50;1.00;;;17.50;25.40;;;;;;2238515;62;20395;-62
2022/01/09 06:19:35;0.00;0.00;0.62;0.00;0.00;0.62;1.60;1.00;;;17.60;25.40;;;;;;2237831;62;20395;-62
2022/01/09 06:22:21;0.00;0.00;0.62;0.00;0.00;0.62;1.40;0.80;;;17.60;25.40;;;;;;2237987;62;20387;-62
2022/01/09 06:25:07;0.00;0.00;0.62;0.00;0.00;0.62;1.63;1.00;;;17.60;25.40;;;;;;2237717;62;20458;-62
2022/01/09 06:27:52;0.00;0.00;0.62;0.00;0.00;0.62;1.50;1.03;;;17.60;25.40;;;;;;2237568;62;20442;-62
2022/01/09 06:30:38;0.00;0.00;0.62;0.00;0.00;0.62;1.50;0.90;;;17.60;25.40;;;;;;2238465;62;20480;-62
2022/01/09 06:33:22;0.00;0.00;0.62;0.00;0.00;0.62;1.30;0.87;;;17.70;25.50;;;;;;2237399;62;20392;-62
2022/01/09 06:36:07;0.00;0.00;0.62;0.00;0.00;0.62;1.30;0.80;;;17.70;25.50;;;;;;2237590;62;20404;-62
2022/01/09 06:38:51;0.00;0.00;0.62;0.00;0.00;0.62;1.30;0.80;;;17.70;25.50;;;;;;2238390;62;20363;-62
2022/01/09 06:41:36;0.00;0.00;0.62;0.00;0.00;0.62;2.00;1.00;;;17.70;25.50;;;;;;2237341;62;20371;-62
2022/01/09 06:44:21;0.00;0.00;0.62;0.00;0.00;0.62;1.40;0.80;;;17.70;25.50;;;;;;2237987;62;20776;-62
2022/01/09 06:47:07;0.00;0.00;0.62;0.00;0.00;0.62;1.47;0.90;;;17.70;25.50;;;;;;2237662;62;20387;-62
2022/01/09 06:49:52;0.00;0.00;0.62;0.00;0.00;0.62;1.50;0.90;;;17.70;25.50;;;;;;2237541;62;20375;-62
2022/01/09 06:52:36;0.00;0.00;0.62;0.00;0.00;0.62;1.50;0.80;;;17.80;25.60;;;;;;2238419;62;20367;-62
2022/01/09 06:55:21;0.00;0.00;0.62;0.00;0.00;0.62;1.20;0.80;;;17.80;25.50;;;;;;2237471;62;20383;-62
2022/01/09 06:58:06;0.00;0.00;0.62;0.00;0.00;0.62;1.30;0.70;;;17.80;25.60;;;;;;2237541;62;20767;-62
2022/01/09 07:00:52;0.00;0.00;0.62;0.00;0.00;0.62;1.40;0.70;;;17.80;25.50;;;;;;2238364;62;20427;-61
2022/01/09 07:03:38;0.00;0.00;0.62;0.00;0.00;0.62;1.97;0.97;;;17.80;25.50;;;;;;2237272;62;20463;-62
2022/01/09 07:06:23;0.00;0.00;0.62;0.00;0.00;0.62;1.47;0.97;;;17.80;25.50;;;;;;2237956;62;20364;-62
2022/01/09 07:09:08;0.00;0.00;0.62;0.00;0.00;0.62;1.60;0.90;;;17.70;25.50;;;;;;2237417;62;20763;-62
2022/01/09 07:11:52;0.00;0.00;0.62;0.00;0.00;0.62;1.60;1.00;;;17.80;26.10;;;;;;2237824;62;20427;-63
2022/01/09 07:14:37;0.00;0.00;0.62;0.00;0.00;0.62;1.50;0.90;;;17.70;25.50;;;;;;2238312;62;20403;-60
2022/01/09 07:17:22;0.00;0.00;0.62;0.00;0.00;0.62;2.27;1.00;;;17.80;25.60;;;;;;2237420;62;20367;-62
2022/01/09 07:20:10;0.00;0.00;0.62;0.00;0.00;0.62;1.40;0.80;;;17.80;25.60;;;;;;2237835;62;20367;-63
2022/01/09 07:22:55;0.00;0.00;0.62;0.00;0.00;0.62;1.33;0.80;;;17.80;25.60;;;;;;2238340;62;20368;-62
2022/01/09 07:25:39;0.00;0.00;0.62;0.00;0.00;0.62;1.40;0.80;;;17.80;25.60;;;;;;2237536;62;20459;-62
2022/01/09 07:28:24;0.00;0.00;0.62;0.00;0.00;0.62;1.20;0.73;;;17.80;25.70;;;;;;2238182;62;20423;-60
2022/01/09 07:31:08;0.00;0.00;0.62;0.00;0.00;0.62;1.43;0.80;;;17.80;25.60;;;;;;2237805;62;20372;-60
2022/01/09 07:33:53;0.00;0.00;0.62;0.00;0.00;0.62;2.43;0.70;;;17.80;25.70;;;;;;2237261;62;20391;-60
2022/01/09 07:36:39;0.00;0.00;0.62;0.00;0.00;0.62;1.20;0.70;;;17.80;25.70;;;;;;2238184;62;20407;-62
2022/01/09 07:39:23;0.00;0.00;0.62;0.00;0.00;0.62;1.40;0.70;;;17.80;25.70;;;;;;2236869;62;20367;-61
2022/01/09 07:42:08;0.00;0.00;0.62;0.00;0.00;0.62;1.30;0.70;;;17.90;25.70;;;;;;2237422;62;20383;-62
2022/01/09 07:44:52;0.00;0.00;0.62;0.00;0.00;0.62;1.50;0.77;;;17.80;25.70;;;;;;2238218;62;20387;-62
2022/01/09 07:47:37;0.00;0.00;0.62;0.00;0.00;0.62;1.30;0.80;;;17.80;25.70;;;;;;2236817;62;20558;-62
2022/01/09 07:50:23;0.00;0.00;0.62;0.00;0.00;0.62;1.40;0.70;;;17.80;25.70;;;;;;2237748;62;20371;-62
2022/01/09 07:53:10;0.00;0.00;0.62;0.00;0.00;0.62;1.60;0.77;;;17.80;25.70;;;;;;2238023;62;20747;-62
2022/01/09 07:55:55;0.00;0.00;0.62;0.00;0.00;0.62;1.40;0.70;;;17.80;25.60;;;;;;2237431;62;20375;-62
2022/01/09 07:58:39;0.00;0.00;0.62;0.00;0.00;0.62;1.20;0.60;;;17.80;25.60;;;;;;2237848;62;20363;-62
2022/01/09 08:01:24;0.00;0.00;0.62;0.00;0.00;0.62;1.30;0.80;;;17.80;25.60;;;;;;2237277;62;20469;-61
2022/01/09 08:04:08;0.00;0.00;0.62;0.00;0.00;0.62;1.30;0.80;;;17.80;25.60;;;;;;2237042;62;20427;-61
2022/01/09 08:06:53;0.00;0.00;0.62;0.00;0.00;0.62;1.70;0.80;;;17.80;25.70;;;;;;2237999;62;20447;-62
2022/01/09 08:09:39;0.00;0.00;0.62;0.00;0.00;0.62;1.20;0.60;;;17.80;25.70;;;;;;2237295;62;20772;-61
2022/01/09 08:12:24;0.00;0.00;0.62;0.00;0.00;0.62;1.23;0.70;;;17.70;25.60;;;;;;2237244;62;20475;-62
2022/01/09 08:15:09;0.00;0.00;0.62;0.00;0.00;0.62;1.20;0.60;;;17.70;25.60;;;;;;2237990;62;20435;-62
2022/01/09 08:17:54;0.00;0.00;0.62;0.00;0.00;0.62;1.30;0.70;;;17.70;25.70;;;;;;2237368;62;20362;-61
2022/01/09 08:20:39;0.00;0.00;0.62;0.00;0.00;0.62;1.23;0.60;;;17.70;25.70;;;;;;2237276;62;20422;-61
2022/01/09 08:23:24;0.00;0.00;0.62;0.00;0.00;0.62;1.40;0.70;;;17.70;25.70;;;;;;2236766;62;20727;-61
2022/01/09 08:26:10;0.00;0.00;0.62;0.00;0.00;0.62;1.20;0.60;;;17.70;25.70;;;;;;2237412;62;20371;-62
2022/01/09 08:28:54;0.00;0.00;0.62;0.00;0.00;0.62;1.20;0.60;;;17.70;25.70;;;;;;2237540;62;20783;-62
2022/01/09 08:31:39;0.00;0.00;0.62;0.00;0.00;0.62;1.37;0.70;;;17.70;25.80;;;;;;2235447;62;20407;-62
2022/01/09 08:34:23;0.00;0.00;0.62;0.00;0.00;0.62;1.20;0.60;;;17.70;25.80;;;;;;2240994;61;20390;-62
2022/01/09 08:37:11;0.00;0.00;0.62;0.00;0.00;0.62;1.30;0.70;;;17.70;25.80;;;;;;2241922;62;20366;-62
2022/01/09 08:39:56;0.00;0.00;0.62;0.00;0.00;0.62;1.30;0.70;;;17.70;25.80;;;;;;2240768;62;20386;-61
2022/01/09 08:42:42;0.00;0.00;0.62;0.00;0.00;0.62;1.20;0.60;;;17.80;25.80;;;;;;2241379;62;20370;-62
2022/01/09 08:45:26;0.00;0.00;0.62;0.00;0.00;0.62;1.37;0.70;;;17.70;25.80;;;;;;2241698;62;20394;-62
2022/01/09 08:48:11;0.00;0.00;0.62;0.00;0.00;0.62;1.20;0.63;;;17.80;25.90;;;;;;2241042;62;20390;-61
2022/01/09 08:50:55;0.00;0.00;0.62;0.00;0.00;0.62;1.30;0.70;;;17.80;25.90;;;;;;2242114;62;20370;-61
2022/01/09 08:53:41;0.00;0.00;0.62;0.00;0.00;0.62;1.37;0.70;;;17.80;25.90;;;;;;2241086;62;20414;-62
2022/01/09 08:56:28;0.00;0.00;0.62;0.00;0.00;0.62;1.20;0.63;;;17.80;25.90;;;;;;2240935;62;20362;-61
2022/01/09 08:59:14;0.00;0.00;0.62;0.00;0.00;0.62;2.30;1.00;;;17.80;25.90;;;;;;2241915;62;20367;-61
2022/01/09 09:01:58;0.00;0.00;0.62;0.00;0.00;0.62;1.50;0.60;;;17.80;26.40;;;;;;2240792;62;20375;-61
2022/01/09 09:04:43;0.00;0.00;0.62;0.00;0.00;0.62;1.30;0.70;;;17.80;25.90;;;;;;2241043;62;20687;-61
2022/01/09 09:07:27;0.00;0.00;0.62;0.00;0.00;0.62;1.30;0.60;;;17.80;25.90;;;;;;2241459;62;20434;-62
2022/01/09 09:10:13;0.00;0.00;0.62;0.00;0.00;0.62;1.40;0.70;;;17.80;25.90;;;;;;2243748;61;20370;-62
2022/01/09 09:12:57;0.00;0.00;0.62;0.00;0.00;0.62;2.03;1.03;;;17.80;25.90;;;;;;2241710;62;20402;-62
2022/01/09 09:15:43;0.00;0.00;0.62;0.00;0.00;0.62;1.20;0.70;;;17.90;26.00;;;;;;2241126;62;20407;-62
2022/01/09 09:18:31;0.00;0.00;0.62;0.00;0.00;0.62;1.40;0.80;;;17.80;25.90;;;;;;2241104;62;20486;-62
2022/01/09 09:21:16;0.00;0.00;0.62;0.00;0.00;0.62;1.60;0.90;;;17.90;26.00;;;;;;2242005;62;20366;-60
2022/01/09 09:24:01;0.00;0.00;0.62;0.00;0.00;0.62;1.30;0.77;;;17.90;26.00;;;;;;2240836;62;20458;-62
2022/01/09 09:26:45;0.00;0.00;0.62;0.00;0.00;0.62;1.80;0.90;;;17.90;26.00;;;;;;2241476;62;20446;-63
2022/01/09 09:29:30;0.00;0.00;0.62;0.00;0.00;0.62;1.60;0.90;;;17.90;26.10;;;;;;2243807;61;20363;-62
2022/01/09 09:32:16;0.00;0.00;0.62;0.00;0.00;0.62;1.40;0.80;;;17.90;26.10;;;;;;2241159;62;20381;-62
2022/01/09 09:35:02;0.00;0.00;0.62;0.00;0.00;0.62;1.40;0.80;;;17.90;26.20;;;;;;2241865;62;20406;-62
2022/01/09 09:37:47;0.00;0.00;0.62;0.00;0.00;0.62;2.47;0.70;;;18.00;26.20;;;;;;2240919;62;20362;-62
2022/01/09 09:40:32;0.00;0.00;0.62;0.00;0.00;0.62;1.30;0.70;;;18.00;26.20;;;;;;2241204;62;20770;-62
2022/01/09 09:43:17;0.00;0.00;0.62;0.00;0.00;0.62;1.30;0.70;;;18.00;26.20;;;;;;2241718;62;20362;-61
2022/01/09 09:46:02;0.00;0.00;0.62;0.00;0.00;0.62;1.73;0.90;;;18.00;26.20;;;;;;2243436;61;20410;-61
2022/01/09 09:48:49;0.00;0.00;0.62;0.00;0.00;0.62;1.60;1.20;;;18.00;26.20;;;;;;2242178;62;20781;-62
2022/01/09 09:51:34;0.00;0.00;0.62;0.00;0.00;0.62;4.80;0.70;;;18.00;26.20;;;;;;2242540;62;20362;-62
2022/01/09 09:54:18;0.00;0.00;0.62;0.00;0.00;0.62;1.60;0.80;;;18.10;26.30;;;;;;2243989;61;20673;-63
2022/01/09 09:57:04;0.00;0.00;0.62;0.00;0.00;0.62;1.20;0.67;;;18.10;26.40;;;;;;2242189;62;20363;-62
2022/01/09 09:59:49;0.00;0.00;0.62;0.00;0.00;0.62;2.67;0.80;;;18.10;26.40;;;;;;2241505;62;20739;-62
2022/01/09 10:02:43;0.00;0.00;0.62;0.00;0.00;0.62;1.60;0.70;;;18.10;26.40;;;;;;2241844;62;20414;-62
2022/01/09 10:05:35;0.00;0.00;0.62;0.00;0.00;0.62;2.37;0.80;;;18.20;26.50;;;;;;2242415;62;20507;-62
2022/01/09 10:08:19;0.00;0.00;0.62;0.00;0.00;0.62;1.30;0.70;;;18.20;26.40;;;;;;2241655;62;20510;-62
2022/01/09 10:11:16;0.00;0.00;0.62;0.00;0.00;0.62;1.50;1.00;;;18.20;26.50;;;;;;2242226;62;20366;-62
2022/01/09 10:14:11;0.00;0.00;0.62;0.00;0.00;0.62;1.40;0.80;;;18.20;26.40;;;;;;2241665;62;20422;-62
2022/01/09 10:17:12;0.00;0.00;0.62;0.00;0.00;0.62;1.60;1.00;;;18.20;26.40;;;;;;2241931;62;20354;-62
2022/01/09 10:20:00;0.00;0.00;0.62;0.00;0.00;0.62;1.40;0.70;;;18.20;26.40;;;;;;2242309;62;20394;-63
2022/01/09 10:22:48;0.00;0.00;0.62;0.00;0.00;0.62;1.40;0.77;;;18.20;26.40;;;;;;2241600;62;20366;-62
2022/01/09 10:25:36;0.00;0.00;0.62;0.00;0.00;0.62;1.80;0.70;;;18.20;26.40;;;;;;2241779;62;20598;-62
2022/01/09 10:28:22;0.00;0.00;0.62;0.00;0.00;0.62;1.43;0.70;;;18.30;26.40;;;;;;2242205;62;20449;-62
2022/01/09 10:31:19;0.00;0.00;0.62;0.00;0.00;0.62;2.80;0.83;;;18.30;26.40;;;;;;2242239;62;20362;-65
2022/01/09 10:34:07;0.00;0.00;0.62;0.00;0.00;0.62;1.60;0.70;;;18.30;26.40;;;;;;2242342;62;20378;-62
2022/01/09 10:36:52;0.00;0.00;0.62;0.00;0.00;0.62;1.53;0.87;;;18.30;26.40;;;;;;2241853;62;20367;-63
2022/01/09 10:39:41;0.00;0.00;0.62;0.00;0.00;0.62;3.10;0.97;;;18.30;26.40;;;;;;2244316;61;20366;-62
2022/01/09 10:42:26;0.00;0.00;0.62;0.00;0.00;0.62;1.50;0.90;;;18.30;26.40;;;;;;2242288;62;20370;-62
2022/01/09 10:45:21;0.00;0.00;0.62;0.00;0.00;0.62;1.30;0.80;;;18.40;26.40;;;;;;2241611;62;20402;-62
2022/01/09 10:48:09;0.00;0.00;0.62;0.00;0.00;0.62;1.93;0.83;;;18.40;26.40;;;;;;2241943;62;20773;-62
2022/01/09 10:50:54;0.00;0.00;0.62;0.00;0.00;0.62;1.90;0.83;;;18.40;26.40;;;;;;2242042;62;20366;-62
2022/01/09 10:53:42;0.00;0.00;0.62;0.00;0.00;0.62;1.53;0.80;;;18.40;26.40;;;;;;2241659;62;20413;-62